sensor_id;sensor_type;location;lat;lon;timestamp;P1;durP1;ratioP1;P2;durP2;ratioP2
30000;SDS011;16845;48.670;9.000;2023-04-29T00:02:23;5.13;;;3.20;;
30000;SDS011;16845;48.670;9.000;2023-04-29T00:04:51;4.53;;;3.25;;
30000;SDS011;16845;48.670;9.000;2023-04-29T00:07:18;3.28;;;2.97;;
30000;SDS011;16845;48.670;9.000;2023-04-29T00:09:44;5.20;;;3.30;;
30000;SDS011;16845;48.670;9.000;2023-04-29T00:12:11;4.20;;;2.60;;
30000;SDS011;16845;48.670;9.000;2023-04-29T00:14:37;7.95;;;3.15;;
30000;SDS011;16845;48.670;9.000;2023-04-29T00:17:04;2.97;;;2.70;;
30000;SDS011;16845;48.670;9.000;2023-04-29T00:19:30;3.13;;;2.83;;
30000;SDS011;16845;48.670;9.000;2023-04-29T00:21:58;4.32;;;2.92;;
30000;SDS011;16845;48.670;9.000;2023-04-29T00:24:24;3.05;;;2.80;;
30000;SDS011;16845;48.670;9.000;2023-04-29T00:26:51;7.15;;;2.90;;
30000;SDS011;16845;48.670;9.000;2023-04-29T00:29:17;8.27;;;3.75;;
30000;SDS011;16845;48.670;9.000;2023-04-29T00:31:44;3.60;;;3.20;;
30000;SDS011;16845;48.670;9.000;2023-04-29T00:34:10;6.10;;;3.13;;
30000;SDS011;16845;48.670;9.000;2023-04-29T00:36:37;7.32;;;3.40;;
30000;SDS011;16845;48.670;9.000;2023-04-29T00:39:04;2.95;;;2.55;;
30000;SDS011;16845;48.670;9.000;2023-04-29T00:41:31;3.40;;;2.88;;
30000;SDS011;16845;48.670;9.000;2023-04-29T00:43:57;5.63;;;3.38;;
30000;SDS011;16845;48.670;9.000;2023-04-29T00:46:24;5.95;;;3.30;;
30000;SDS011;16845;48.670;9.000;2023-04-29T00:48:50;7.18;;;3.30;;
30000;SDS011;16845;48.670;9.000;2023-04-29T00:51:17;8.50;;;3.30;;
30000;SDS011;16845;48.670;9.000;2023-04-29T00:53:43;6.03;;;2.80;;
30000;SDS011;16845;48.670;9.000;2023-04-29T00:56:13;10.00;;;2.90;;
30000;SDS011;16845;48.670;9.000;2023-04-29T00:58:40;3.78;;;2.78;;
30000;SDS011;16845;48.670;9.000;2023-04-29T01:01:08;2.92;;;2.63;;
30000;SDS011;16845;48.670;9.000;2023-04-29T01:03:35;3.73;;;2.77;;
30000;SDS011;16845;48.670;9.000;2023-04-29T01:06:05;4.82;;;3.10;;
30000;SDS011;16845;48.670;9.000;2023-04-29T01:08:36;4.00;;;2.67;;
30000;SDS011;16845;48.670;9.000;2023-04-29T01:11:09;3.90;;;2.63;;
30000;SDS011;16845;48.670;9.000;2023-04-29T01:13:41;3.67;;;3.05;;
30000;SDS011;16845;48.670;9.000;2023-04-29T01:16:12;2.88;;;2.58;;
30000;SDS011;16845;48.670;9.000;2023-04-29T01:18:48;3.05;;;2.67;;
30000;SDS011;16845;48.670;9.000;2023-04-29T01:21:19;9.75;;;3.10;;
30000;SDS011;16845;48.670;9.000;2023-04-29T01:23:47;6.88;;;3.47;;
30000;SDS011;16845;48.670;9.000;2023-04-29T01:26:14;5.57;;;3.17;;
30000;SDS011;16845;48.670;9.000;2023-04-29T01:28:42;2.95;;;2.60;;
30000;SDS011;16845;48.670;9.000;2023-04-29T01:31:17;3.28;;;2.85;;
30000;SDS011;16845;48.670;9.000;2023-04-29T01:33:47;3.50;;;2.50;;
30000;SDS011;16845;48.670;9.000;2023-04-29T01:36:21;4.18;;;3.60;;
30000;SDS011;16845;48.670;9.000;2023-04-29T01:38:59;3.70;;;3.15;;
30000;SDS011;16845;48.670;9.000;2023-04-29T01:41:34;6.95;;;3.03;;
30000;SDS011;16845;48.670;9.000;2023-04-29T01:44:02;4.72;;;3.08;;
30000;SDS011;16845;48.670;9.000;2023-04-29T01:46:31;12.88;;;3.88;;
30000;SDS011;16845;48.670;9.000;2023-04-29T01:48:58;3.17;;;2.53;;
30000;SDS011;16845;48.670;9.000;2023-04-29T01:51:24;5.18;;;2.65;;
30000;SDS011;16845;48.670;9.000;2023-04-29T01:53:51;5.10;;;3.00;;
30000;SDS011;16845;48.670;9.000;2023-04-29T01:56:19;4.25;;;3.08;;
30000;SDS011;16845;48.670;9.000;2023-04-29T01:58:45;3.85;;;3.28;;
30000;SDS011;16845;48.670;9.000;2023-04-29T02:01:12;3.33;;;3.03;;
30000;SDS011;16845;48.670;9.000;2023-04-29T02:03:38;3.70;;;2.97;;
30000;SDS011;16845;48.670;9.000;2023-04-29T02:06:05;6.33;;;3.47;;
30000;SDS011;16845;48.670;9.000;2023-04-29T02:08:31;3.13;;;2.67;;
30000;SDS011;16845;48.670;9.000;2023-04-29T02:10:58;5.63;;;3.40;;
30000;SDS011;16845;48.670;9.000;2023-04-29T02:13:26;4.47;;;3.10;;
30000;SDS011;16845;48.670;9.000;2023-04-29T02:15:52;2.83;;;2.58;;
30000;SDS011;16845;48.670;9.000;2023-04-29T02:18:19;4.30;;;3.27;;
30000;SDS011;16845;48.670;9.000;2023-04-29T02:20:45;4.28;;;3.50;;
30000;SDS011;16845;48.670;9.000;2023-04-29T02:23:12;4.30;;;3.00;;
30000;SDS011;16845;48.670;9.000;2023-04-29T02:25:38;9.48;;;3.05;;
30000;SDS011;16845;48.670;9.000;2023-04-29T02:28:05;4.50;;;3.45;;
30000;SDS011;16845;48.670;9.000;2023-04-29T02:30:32;3.70;;;2.88;;
30000;SDS011;16845;48.670;9.000;2023-04-29T02:32:59;5.22;;;3.15;;
30000;SDS011;16845;48.670;9.000;2023-04-29T02:35:25;3.40;;;3.10;;
30000;SDS011;16845;48.670;9.000;2023-04-29T02:37:52;3.95;;;3.05;;
30000;SDS011;16845;48.670;9.000;2023-04-29T02:40:18;4.50;;;2.95;;
30000;SDS011;16845;48.670;9.000;2023-04-29T02:42:45;3.97;;;3.30;;
30000;SDS011;16845;48.670;9.000;2023-04-29T02:45:11;3.03;;;2.72;;
30000;SDS011;16845;48.670;9.000;2023-04-29T02:47:39;5.40;;;3.20;;
30000;SDS011;16845;48.670;9.000;2023-04-29T02:50:06;3.63;;;2.70;;
30000;SDS011;16845;48.670;9.000;2023-04-29T02:52:33;3.15;;;2.90;;
30000;SDS011;16845;48.670;9.000;2023-04-29T02:54:59;5.18;;;3.50;;
30000;SDS011;16845;48.670;9.000;2023-04-29T02:57:25;3.28;;;2.60;;
30000;SDS011;16845;48.670;9.000;2023-04-29T02:59:52;6.40;;;3.03;;
30000;SDS011;16845;48.670;9.000;2023-04-29T03:02:19;2.77;;;2.40;;
30000;SDS011;16845;48.670;9.000;2023-04-29T03:04:47;4.40;;;3.17;;
30000;SDS011;16845;48.670;9.000;2023-04-29T03:07:13;4.03;;;3.55;;
30000;SDS011;16845;48.670;9.000;2023-04-29T03:09:39;3.58;;;3.28;;
30000;SDS011;16845;48.670;9.000;2023-04-29T03:12:06;9.95;;;3.40;;
30000;SDS011;16845;48.670;9.000;2023-04-29T03:14:32;4.30;;;3.25;;
30000;SDS011;16845;48.670;9.000;2023-04-29T03:16:59;5.82;;;3.22;;
30000;SDS011;16845;48.670;9.000;2023-04-29T03:19:25;7.75;;;4.00;;
30000;SDS011;16845;48.670;9.000;2023-04-29T03:21:53;4.35;;;3.92;;
30000;SDS011;16845;48.670;9.000;2023-04-29T03:24:20;3.63;;;3.33;;
30000;SDS011;16845;48.670;9.000;2023-04-29T03:26:46;8.23;;;4.28;;
30000;SDS011;16845;48.670;9.000;2023-04-29T03:29:12;6.25;;;4.95;;
30000;SDS011;16845;48.670;9.000;2023-04-29T03:31:39;6.15;;;4.82;;
30000;SDS011;16845;48.670;9.000;2023-04-29T03:34:05;6.18;;;4.00;;
30000;SDS011;16845;48.670;9.000;2023-04-29T03:36:32;6.90;;;4.53;;
30000;SDS011;16845;48.670;9.000;2023-04-29T03:39:00;8.77;;;4.25;;
30000;SDS011;16845;48.670;9.000;2023-04-29T03:41:26;7.00;;;4.78;;
30000;SDS011;16845;48.670;9.000;2023-04-29T03:43:52;6.13;;;5.03;;
30000;SDS011;16845;48.670;9.000;2023-04-29T03:46:19;4.13;;;3.70;;
30000;SDS011;16845;48.670;9.000;2023-04-29T03:48:45;4.75;;;4.07;;
30000;SDS011;16845;48.670;9.000;2023-04-29T03:51:12;17.30;;;5.13;;
30000;SDS011;16845;48.670;9.000;2023-04-29T03:53:38;4.85;;;4.18;;
30000;SDS011;16845;48.670;9.000;2023-04-29T03:56:06;5.55;;;4.18;;
30000;SDS011;16845;48.670;9.000;2023-04-29T03:58:33;4.32;;;3.92;;
30000;SDS011;16845;48.670;9.000;2023-04-29T04:00:59;5.43;;;4.10;;
30000;SDS011;16845;48.670;9.000;2023-04-29T04:03:26;4.30;;;3.85;;
30000;SDS011;16845;48.670;9.000;2023-04-29T04:05:52;4.20;;;3.45;;
30000;SDS011;16845;48.670;9.000;2023-04-29T04:08:19;4.88;;;3.85;;
30000;SDS011;16845;48.670;9.000;2023-04-29T04:10:45;7.18;;;4.53;;
30000;SDS011;16845;48.670;9.000;2023-04-29T04:13:13;6.32;;;3.72;;
30000;SDS011;16845;48.670;9.000;2023-04-29T04:15:39;6.32;;;3.85;;
30000;SDS011;16845;48.670;9.000;2023-04-29T04:18:06;4.70;;;4.18;;
30000;SDS011;16845;48.670;9.000;2023-04-29T04:20:35;6.65;;;4.40;;
30000;SDS011;16845;48.670;9.000;2023-04-29T04:23:02;5.70;;;3.83;;
30000;SDS011;16845;48.670;9.000;2023-04-29T04:25:28;5.10;;;3.85;;
30000;SDS011;16845;48.670;9.000;2023-04-29T04:27:55;6.10;;;4.03;;
30000;SDS011;16845;48.670;9.000;2023-04-29T04:30:22;4.80;;;4.05;;
30000;SDS011;16845;48.670;9.000;2023-04-29T04:32:49;6.00;;;4.22;;
30000;SDS011;16845;48.670;9.000;2023-04-29T04:35:15;4.90;;;4.47;;
30000;SDS011;16845;48.670;9.000;2023-04-29T04:37:42;6.63;;;5.15;;
30000;SDS011;16845;48.670;9.000;2023-04-29T04:40:09;5.97;;;4.65;;
30000;SDS011;16845;48.670;9.000;2023-04-29T04:42:37;6.20;;;4.82;;
30000;SDS011;16845;48.670;9.000;2023-04-29T04:45:03;7.18;;;4.35;;
30000;SDS011;16845;48.670;9.000;2023-04-29T04:47:32;7.90;;;4.72;;
30000;SDS011;16845;48.670;9.000;2023-04-29T04:49:58;9.80;;;5.57;;
30000;SDS011;16845;48.670;9.000;2023-04-29T04:52:25;7.53;;;5.67;;
30000;SDS011;16845;48.670;9.000;2023-04-29T04:54:51;5.22;;;4.70;;
30000;SDS011;16845;48.670;9.000;2023-04-29T04:57:18;5.18;;;4.68;;
30000;SDS011;16845;48.670;9.000;2023-04-29T04:59:44;4.45;;;4.05;;
30000;SDS011;16845;48.670;9.000;2023-04-29T05:02:11;4.93;;;4.50;;
30000;SDS011;16845;48.670;9.000;2023-04-29T05:04:38;5.43;;;4.88;;
30000;SDS011;16845;48.670;9.000;2023-04-29T05:07:05;4.25;;;3.65;;
30000;SDS011;16845;48.670;9.000;2023-04-29T05:09:31;5.95;;;4.50;;
30000;SDS011;16845;48.670;9.000;2023-04-29T05:11:58;6.40;;;4.03;;
30000;SDS011;16845;48.670;9.000;2023-04-29T05:14:24;6.63;;;4.40;;
30000;SDS011;16845;48.670;9.000;2023-04-29T05:16:51;7.85;;;3.85;;
30000;SDS011;16845;48.670;9.000;2023-04-29T05:19:17;8.33;;;3.80;;
30000;SDS011;16845;48.670;9.000;2023-04-29T05:21:45;5.85;;;2.85;;
30000;SDS011;16845;48.670;9.000;2023-04-29T05:24:12;5.75;;;3.42;;
30000;SDS011;16845;48.670;9.000;2023-04-29T05:26:38;5.90;;;3.20;;
30000;SDS011;16845;48.670;9.000;2023-04-29T05:29:04;6.55;;;3.17;;
30000;SDS011;16845;48.670;9.000;2023-04-29T05:31:31;4.32;;;2.58;;
30000;SDS011;16845;48.670;9.000;2023-04-29T05:33:57;5.70;;;2.80;;
30000;SDS011;16845;48.670;9.000;2023-04-29T05:36:24;5.57;;;3.05;;
30000;SDS011;16845;48.670;9.000;2023-04-29T05:38:51;6.55;;;3.38;;
30000;SDS011;16845;48.670;9.000;2023-04-29T05:41:18;3.58;;;2.83;;
30000;SDS011;16845;48.670;9.000;2023-04-29T05:43:45;4.18;;;3.78;;
30000;SDS011;16845;48.670;9.000;2023-04-29T05:46:11;5.53;;;3.95;;
30000;SDS011;16845;48.670;9.000;2023-04-29T05:48:38;3.72;;;3.40;;
30000;SDS011;16845;48.670;9.000;2023-04-29T05:51:04;6.95;;;3.22;;
30000;SDS011;16845;48.670;9.000;2023-04-29T05:53:31;3.47;;;3.08;;
30000;SDS011;16845;48.670;9.000;2023-04-29T05:55:59;5.72;;;2.80;;
30000;SDS011;16845;48.670;9.000;2023-04-29T05:58:25;3.40;;;3.10;;
30000;SDS011;16845;48.670;9.000;2023-04-29T06:00:51;6.55;;;2.80;;
30000;SDS011;16845;48.670;9.000;2023-04-29T06:03:18;3.13;;;2.75;;
30000;SDS011;16845;48.670;9.000;2023-04-29T06:05:44;3.05;;;2.60;;
30000;SDS011;16845;48.670;9.000;2023-04-29T06:08:11;4.03;;;2.85;;
30000;SDS011;16845;48.670;9.000;2023-04-29T06:10:38;5.78;;;2.88;;
30000;SDS011;16845;48.670;9.000;2023-04-29T06:13:06;4.35;;;3.92;;
30000;SDS011;16845;48.670;9.000;2023-04-29T06:15:32;3.03;;;2.72;;
30000;SDS011;16845;48.670;9.000;2023-04-29T06:17:59;13.10;;;3.50;;
30000;SDS011;16845;48.670;9.000;2023-04-29T06:20:25;3.45;;;2.90;;
30000;SDS011;16845;48.670;9.000;2023-04-29T06:22:52;3.57;;;2.70;;
30000;SDS011;16845;48.670;9.000;2023-04-29T06:25:18;6.85;;;2.67;;
30000;SDS011;16845;48.670;9.000;2023-04-29T06:27:45;5.95;;;3.22;;
30000;SDS011;16845;48.670;9.000;2023-04-29T06:30:13;3.53;;;2.38;;
30000;SDS011;16845;48.670;9.000;2023-04-29T06:32:39;3.65;;;2.35;;
30000;SDS011;16845;48.670;9.000;2023-04-29T06:35:06;5.37;;;1.87;;
30000;SDS011;16845;48.670;9.000;2023-04-29T06:37:33;6.03;;;1.95;;
30000;SDS011;16845;48.670;9.000;2023-04-29T06:40:03;8.30;;;2.08;;
30000;SDS011;16845;48.670;9.000;2023-04-29T06:42:30;2.63;;;2.33;;
30000;SDS011;16845;48.670;9.000;2023-04-29T06:44:56;2.50;;;2.30;;
30000;SDS011;16845;48.670;9.000;2023-04-29T06:47:24;2.15;;;1.95;;
30000;SDS011;16845;48.670;9.000;2023-04-29T06:49:50;2.45;;;2.20;;
30000;SDS011;16845;48.670;9.000;2023-04-29T06:52:17;2.10;;;1.90;;
30000;SDS011;16845;48.670;9.000;2023-04-29T06:54:43;2.40;;;1.65;;
30000;SDS011;16845;48.670;9.000;2023-04-29T06:57:10;2.22;;;2.00;;
30000;SDS011;16845;48.670;9.000;2023-04-29T06:59:36;2.20;;;1.70;;
30000;SDS011;16845;48.670;9.000;2023-04-29T07:02:03;2.47;;;1.83;;
30000;SDS011;16845;48.670;9.000;2023-04-29T07:04:30;1.92;;;1.73;;
30000;SDS011;16845;48.670;9.000;2023-04-29T07:06:57;2.35;;;1.85;;
30000;SDS011;16845;48.670;9.000;2023-04-29T07:09:23;2.38;;;2.17;;
30000;SDS011;16845;48.670;9.000;2023-04-29T07:11:50;2.00;;;1.90;;
30000;SDS011;16845;48.670;9.000;2023-04-29T07:14:16;4.07;;;2.00;;
30000;SDS011;16845;48.670;9.000;2023-04-29T07:16:43;3.17;;;2.58;;
30000;SDS011;16845;48.670;9.000;2023-04-29T07:19:09;2.40;;;2.20;;
30000;SDS011;16845;48.670;9.000;2023-04-29T07:21:37;2.17;;;1.67;;
30000;SDS011;16845;48.670;9.000;2023-04-29T07:24:04;4.57;;;2.20;;
30000;SDS011;16845;48.670;9.000;2023-04-29T07:26:30;2.40;;;2.05;;
30000;SDS011;16845;48.670;9.000;2023-04-29T07:28:57;3.17;;;2.60;;
30000;SDS011;16845;48.670;9.000;2023-04-29T07:31:23;2.53;;;2.33;;
30000;SDS011;16845;48.670;9.000;2023-04-29T07:33:50;1.90;;;1.80;;
30000;SDS011;16845;48.670;9.000;2023-04-29T07:36:16;2.50;;;2.30;;
30000;SDS011;16845;48.670;9.000;2023-04-29T07:38:44;2.78;;;2.45;;
30000;SDS011;16845;48.670;9.000;2023-04-29T07:41:11;3.45;;;1.90;;
30000;SDS011;16845;48.670;9.000;2023-04-29T07:43:37;3.08;;;2.55;;
30000;SDS011;16845;48.670;9.000;2023-04-29T07:46:07;2.15;;;1.73;;
30000;SDS011;16845;48.670;9.000;2023-04-29T07:48:35;4.10;;;2.53;;
30000;SDS011;16845;48.670;9.000;2023-04-29T07:51:02;2.20;;;1.70;;
30000;SDS011;16845;48.670;9.000;2023-04-29T07:53:28;2.17;;;1.97;;
30000;SDS011;16845;48.670;9.000;2023-04-29T07:55:56;2.70;;;1.60;;
30000;SDS011;16845;48.670;9.000;2023-04-29T07:58:23;2.10;;;1.90;;
30000;SDS011;16845;48.670;9.000;2023-04-29T08:00:49;3.17;;;2.03;;
30000;SDS011;16845;48.670;9.000;2023-04-29T08:03:16;2.92;;;2.15;;
30000;SDS011;16845;48.670;9.000;2023-04-29T08:05:42;2.33;;;1.67;;
30000;SDS011;16845;48.670;9.000;2023-04-29T08:08:09;4.88;;;1.88;;
30000;SDS011;16845;48.670;9.000;2023-04-29T08:10:36;1.92;;;1.63;;
30000;SDS011;16845;48.670;9.000;2023-04-29T08:15:31;2.97;;;1.90;;
30000;SDS011;16845;48.670;9.000;2023-04-29T08:17:57;3.85;;;1.85;;
30000;SDS011;16845;48.670;9.000;2023-04-29T08:20:23;2.03;;;1.50;;
30000;SDS011;16845;48.670;9.000;2023-04-29T08:22:50;1.95;;;1.80;;
30000;SDS011;16845;48.670;9.000;2023-04-29T08:25:16;3.00;;;1.60;;
30000;SDS011;16845;48.670;9.000;2023-04-29T08:27:43;1.40;;;1.30;;
30000;SDS011;16845;48.670;9.000;2023-04-29T08:30:11;4.22;;;1.52;;
30000;SDS011;16845;48.670;9.000;2023-04-29T08:32:38;1.60;;;1.40;;
30000;SDS011;16845;48.670;9.000;2023-04-29T08:35:04;4.70;;;1.50;;
30000;SDS011;16845;48.670;9.000;2023-04-29T08:37:32;3.85;;;1.88;;
30000;SDS011;16845;48.670;9.000;2023-04-29T08:39:58;1.95;;;1.40;;
30000;SDS011;16845;48.670;9.000;2023-04-29T08:42:29;1.70;;;1.20;;
30000;SDS011;16845;48.670;9.000;2023-04-29T08:44:58;2.15;;;1.52;;
30000;SDS011;16845;48.670;9.000;2023-04-29T08:47:27;1.83;;;1.55;;
30000;SDS011;16845;48.670;9.000;2023-04-29T08:49:55;4.18;;;1.50;;
30000;SDS011;16845;48.670;9.000;2023-04-29T08:52:23;1.67;;;1.50;;
30000;SDS011;16845;48.670;9.000;2023-04-29T08:54:49;1.63;;;1.20;;
30000;SDS011;16845;48.670;9.000;2023-04-29T08:57:16;4.20;;;1.73;;
30000;SDS011;16845;48.670;9.000;2023-04-29T08:59:43;2.53;;;1.57;;
30000;SDS011;16845;48.670;9.000;2023-04-29T09:02:10;2.47;;;1.40;;
30000;SDS011;16845;48.670;9.000;2023-04-29T09:04:44;3.85;;;1.60;;
30000;SDS011;16845;48.670;9.000;2023-04-29T09:07:16;2.55;;;1.83;;
30000;SDS011;16845;48.670;9.000;2023-04-29T09:09:43;2.33;;;2.03;;
30000;SDS011;16845;48.670;9.000;2023-04-29T09:12:09;1.90;;;1.60;;
30000;SDS011;16845;48.670;9.000;2023-04-29T09:14:36;2.65;;;1.40;;
30000;SDS011;16845;48.670;9.000;2023-04-29T09:17:02;1.85;;;0.98;;
30000;SDS011;16845;48.670;9.000;2023-04-29T09:19:29;2.15;;;1.88;;
30000;SDS011;16845;48.670;9.000;2023-04-29T09:24:24;4.22;;;1.65;;
30000;SDS011;16845;48.670;9.000;2023-04-29T09:26:52;2.03;;;1.40;;
30000;SDS011;16845;48.670;9.000;2023-04-29T09:29:18;4.80;;;1.80;;
30000;SDS011;16845;48.670;9.000;2023-04-29T09:31:45;2.63;;;1.90;;
30000;SDS011;16845;48.670;9.000;2023-04-29T09:34:13;1.63;;;1.52;;
30000;SDS011;16845;48.670;9.000;2023-04-29T09:39:09;1.80;;;1.42;;
30000;SDS011;16845;48.670;9.000;2023-04-29T09:41:37;2.35;;;1.85;;
30000;SDS011;16845;48.670;9.000;2023-04-29T09:44:05;2.47;;;1.70;;
30000;SDS011;16845;48.670;9.000;2023-04-29T09:46:32;2.70;;;1.45;;
30000;SDS011;16845;48.670;9.000;2023-04-29T09:48:59;1.55;;;1.45;;
30000;SDS011;16845;48.670;9.000;2023-04-29T09:51:26;1.77;;;1.63;;
30000;SDS011;16845;48.670;9.000;2023-04-29T09:53:52;2.55;;;1.70;;
30000;SDS011;16845;48.670;9.000;2023-04-29T09:56:20;2.35;;;1.70;;
30000;SDS011;16845;48.670;9.000;2023-04-29T09:58:46;3.70;;;1.73;;
30000;SDS011;16845;48.670;9.000;2023-04-29T10:01:13;1.85;;;1.52;;
30000;SDS011;16845;48.670;9.000;2023-04-29T10:03:40;3.88;;;1.50;;
30000;SDS011;16845;48.670;9.000;2023-04-29T10:06:07;1.75;;;1.52;;
30000;SDS011;16845;48.670;9.000;2023-04-29T10:08:33;1.97;;;1.70;;
30000;SDS011;16845;48.670;9.000;2023-04-29T10:11:01;2.42;;;1.30;;
30000;SDS011;16845;48.670;9.000;2023-04-29T10:13:30;2.97;;;1.70;;
30000;SDS011;16845;48.670;9.000;2023-04-29T10:15:59;2.80;;;1.40;;
30000;SDS011;16845;48.670;9.000;2023-04-29T10:18:34;2.85;;;1.50;;
30000;SDS011;16845;48.670;9.000;2023-04-29T10:21:02;3.40;;;1.92;;
30000;SDS011;16845;48.670;9.000;2023-04-29T10:23:31;1.77;;;1.30;;
30000;SDS011;16845;48.670;9.000;2023-04-29T10:28:25;2.38;;;1.67;;
30000;SDS011;16845;48.670;9.000;2023-04-29T10:30:57;1.73;;;1.13;;
30000;SDS011;16845;48.670;9.000;2023-04-29T10:33:27;4.13;;;1.17;;
30000;SDS011;16845;48.670;9.000;2023-04-29T10:35:56;2.40;;;1.42;;
30000;SDS011;16845;48.670;9.000;2023-04-29T10:40:52;3.80;;;1.27;;
30000;SDS011;16845;48.670;9.000;2023-04-29T10:43:21;2.75;;;1.35;;
30000;SDS011;16845;48.670;9.000;2023-04-29T10:45:49;1.42;;;1.33;;
30000;SDS011;16845;48.670;9.000;2023-04-29T10:48:17;3.03;;;1.35;;
30000;SDS011;16845;48.670;9.000;2023-04-29T10:51:02;3.03;;;1.20;;
30000;SDS011;16845;48.670;9.000;2023-04-29T10:53:29;3.10;;;1.30;;
30000;SDS011;16845;48.670;9.000;2023-04-29T10:55:56;1.55;;;1.38;;
30000;SDS011;16845;48.670;9.000;2023-04-29T10:58:34;1.95;;;1.25;;
30000;SDS011;16845;48.670;9.000;2023-04-29T11:03:46;3.72;;;1.83;;
30000;SDS011;16845;48.670;9.000;2023-04-29T11:06:14;1.80;;;1.50;;
30000;SDS011;16845;48.670;9.000;2023-04-29T11:08:41;2.15;;;1.55;;
30000;SDS011;16845;48.670;9.000;2023-04-29T11:11:08;2.28;;;1.95;;
30000;SDS011;16845;48.670;9.000;2023-04-29T11:13:36;5.90;;;1.90;;
30000;SDS011;16845;48.670;9.000;2023-04-29T11:16:04;3.63;;;1.80;;
30000;SDS011;16845;48.670;9.000;2023-04-29T11:18:31;2.08;;;1.77;;
30000;SDS011;16845;48.670;9.000;2023-04-29T11:23:38;3.88;;;2.00;;
30000;SDS011;16845;48.670;9.000;2023-04-29T11:26:05;2.58;;;2.05;;
30000;SDS011;16845;48.670;9.000;2023-04-29T11:28:32;4.65;;;1.80;;
30000;SDS011;16845;48.670;9.000;2023-04-29T11:30:59;2.40;;;1.65;;
30000;SDS011;16845;48.670;9.000;2023-04-29T11:33:26;2.50;;;2.00;;
30000;SDS011;16845;48.670;9.000;2023-04-29T11:35:53;1.88;;;1.75;;
30000;SDS011;16845;48.670;9.000;2023-04-29T11:38:24;1.70;;;1.60;;
30000;SDS011;16845;48.670;9.000;2023-04-29T11:40:50;5.20;;;2.03;;
30000;SDS011;16845;48.670;9.000;2023-04-29T11:43:17;1.87;;;1.40;;
30000;SDS011;16845;48.670;9.000;2023-04-29T11:45:44;1.97;;;1.53;;
30000;SDS011;16845;48.670;9.000;2023-04-29T11:48:16;5.57;;;1.85;;
30000;SDS011;16845;48.670;9.000;2023-04-29T11:50:43;1.77;;;1.25;;
30000;SDS011;16845;48.670;9.000;2023-04-29T11:53:10;1.80;;;1.23;;
30000;SDS011;16845;48.670;9.000;2023-04-29T11:55:38;3.08;;;1.55;;
30000;SDS011;16845;48.670;9.000;2023-04-29T11:58:07;3.83;;;1.92;;
30000;SDS011;16845;48.670;9.000;2023-04-29T12:00:34;1.98;;;1.77;;
30000;SDS011;16845;48.670;9.000;2023-04-29T12:03:00;3.20;;;1.87;;
30000;SDS011;16845;48.670;9.000;2023-04-29T12:05:27;5.00;;;1.77;;
30000;SDS011;16845;48.670;9.000;2023-04-29T12:07:54;3.00;;;1.80;;
30000;SDS011;16845;48.670;9.000;2023-04-29T12:10:20;1.60;;;1.40;;
30000;SDS011;16845;48.670;9.000;2023-04-29T12:12:48;4.93;;;1.75;;
30000;SDS011;16845;48.670;9.000;2023-04-29T12:15:15;1.85;;;1.42;;
30000;SDS011;16845;48.670;9.000;2023-04-29T12:17:41;4.07;;;1.30;;
30000;SDS011;16845;48.670;9.000;2023-04-29T12:20:09;1.67;;;1.20;;
30000;SDS011;16845;48.670;9.000;2023-04-29T12:22:36;1.13;;;0.98;;
30000;SDS011;16845;48.670;9.000;2023-04-29T12:25:03;1.87;;;1.10;;
30000;SDS011;16845;48.670;9.000;2023-04-29T12:27:30;3.22;;;1.42;;
30000;SDS011;16845;48.670;9.000;2023-04-29T12:29:59;3.38;;;1.30;;
30000;SDS011;16845;48.670;9.000;2023-04-29T12:32:25;1.55;;;1.30;;
30000;SDS011;16845;48.670;9.000;2023-04-29T12:34:52;4.40;;;1.17;;
30000;SDS011;16845;48.670;9.000;2023-04-29T12:37:20;1.42;;;0.90;;
30000;SDS011;16845;48.670;9.000;2023-04-29T12:39:48;1.67;;;1.30;;
30000;SDS011;16845;48.670;9.000;2023-04-29T12:42:15;1.73;;;1.40;;
30000;SDS011;16845;48.670;9.000;2023-04-29T12:44:43;2.92;;;1.20;;
30000;SDS011;16845;48.670;9.000;2023-04-29T12:47:11;5.03;;;1.40;;
30000;SDS011;16845;48.670;9.000;2023-04-29T12:49:40;2.15;;;1.17;;
30000;SDS011;16845;48.670;9.000;2023-04-29T12:52:07;2.35;;;2.20;;
30000;SDS011;16845;48.670;9.000;2023-04-29T12:54:34;2.28;;;2.03;;
30000;SDS011;16845;48.670;9.000;2023-04-29T12:57:00;4.43;;;2.55;;
30000;SDS011;16845;48.670;9.000;2023-04-29T12:59:27;2.90;;;2.40;;
30000;SDS011;16845;48.670;9.000;2023-04-29T13:01:53;3.22;;;2.92;;
30000;SDS011;16845;48.670;9.000;2023-04-29T13:04:21;3.33;;;2.57;;
30000;SDS011;16845;48.670;9.000;2023-04-29T13:06:48;6.43;;;3.33;;
30000;SDS011;16845;48.670;9.000;2023-04-29T13:09:14;5.85;;;3.30;;
30000;SDS011;16845;48.670;9.000;2023-04-29T13:11:44;6.82;;;3.63;;
30000;SDS011;16845;48.670;9.000;2023-04-29T13:14:10;4.70;;;3.70;;
30000;SDS011;16845;48.670;9.000;2023-04-29T13:16:37;4.17;;;3.40;;
30000;SDS011;16845;48.670;9.000;2023-04-29T13:19:03;3.10;;;2.80;;
30000;SDS011;16845;48.670;9.000;2023-04-29T13:21:51;5.88;;;2.85;;
30000;SDS011;16845;48.670;9.000;2023-04-29T13:24:18;4.20;;;3.53;;
30000;SDS011;16845;48.670;9.000;2023-04-29T13:26:44;7.27;;;3.00;;
30000;SDS011;16845;48.670;9.000;2023-04-29T13:29:11;3.97;;;2.70;;
30000;SDS011;16845;48.670;9.000;2023-04-29T13:31:37;3.00;;;2.67;;
30000;SDS011;16845;48.670;9.000;2023-04-29T13:34:04;4.90;;;3.03;;
30000;SDS011;16845;48.670;9.000;2023-04-29T13:36:30;3.00;;;2.53;;
30000;SDS011;16845;48.670;9.000;2023-04-29T13:38:58;4.80;;;3.70;;
30000;SDS011;16845;48.670;9.000;2023-04-29T13:41:25;4.15;;;3.50;;
30000;SDS011;16845;48.670;9.000;2023-04-29T13:43:52;6.57;;;3.70;;
30000;SDS011;16845;48.670;9.000;2023-04-29T13:46:24;3.65;;;3.35;;
30000;SDS011;16845;48.670;9.000;2023-04-29T13:48:51;5.63;;;3.33;;
30000;SDS011;16845;48.670;9.000;2023-04-29T13:51:20;6.53;;;3.95;;
30000;SDS011;16845;48.670;9.000;2023-04-29T13:53:50;5.72;;;4.07;;
30000;SDS011;16845;48.670;9.000;2023-04-29T13:56:20;5.10;;;3.88;;
30000;SDS011;16845;48.670;9.000;2023-04-29T13:58:50;6.55;;;5.10;;
30000;SDS011;16845;48.670;9.000;2023-04-29T14:01:36;6.55;;;4.60;;
30000;SDS011;16845;48.670;9.000;2023-04-29T14:04:23;10.07;;;5.05;;
30000;SDS011;16845;48.670;9.000;2023-04-29T14:06:50;7.53;;;4.70;;
30000;SDS011;16845;48.670;9.000;2023-04-29T14:09:16;7.03;;;5.15;;
30000;SDS011;16845;48.670;9.000;2023-04-29T14:11:44;9.30;;;5.78;;
30000;SDS011;16845;48.670;9.000;2023-04-29T14:14:11;8.68;;;5.03;;
30000;SDS011;16845;48.670;9.000;2023-04-29T14:16:37;10.65;;;5.72;;
30000;SDS011;16845;48.670;9.000;2023-04-29T14:19:04;7.90;;;5.53;;
30000;SDS011;16845;48.670;9.000;2023-04-29T14:21:30;9.30;;;6.50;;
30000;SDS011;16845;48.670;9.000;2023-04-29T14:23:57;9.57;;;5.63;;
30000;SDS011;16845;48.670;9.000;2023-04-29T14:26:23;7.90;;;5.57;;
30000;SDS011;16845;48.670;9.000;2023-04-29T14:28:55;11.82;;;6.30;;
30000;SDS011;16845;48.670;9.000;2023-04-29T14:31:21;10.52;;;6.45;;
30000;SDS011;16845;48.670;9.000;2023-04-29T14:33:48;8.07;;;6.40;;
30000;SDS011;16845;48.670;9.000;2023-04-29T14:36:14;9.55;;;6.78;;
30000;SDS011;16845;48.670;9.000;2023-04-29T14:38:41;9.60;;;7.00;;
30000;SDS011;16845;48.670;9.000;2023-04-29T14:41:07;10.70;;;7.18;;
30000;SDS011;16845;48.670;9.000;2023-04-29T14:43:34;9.07;;;8.02;;
30000;SDS011;16845;48.670;9.000;2023-04-29T14:46:02;9.67;;;6.97;;
30000;SDS011;16845;48.670;9.000;2023-04-29T14:48:29;8.93;;;7.82;;
30000;SDS011;16845;48.670;9.000;2023-04-29T14:50:55;10.05;;;7.63;;
30000;SDS011;16845;48.670;9.000;2023-04-29T14:53:22;11.18;;;7.78;;
30000;SDS011;16845;48.670;9.000;2023-04-29T14:55:48;9.83;;;7.57;;
30000;SDS011;16845;48.670;9.000;2023-04-29T14:58:15;9.15;;;8.18;;
30000;SDS011;16845;48.670;9.000;2023-04-29T15:00:41;9.68;;;7.65;;
30000;SDS011;16845;48.670;9.000;2023-04-29T15:03:09;9.30;;;6.90;;
30000;SDS011;16845;48.670;9.000;2023-04-29T15:05:36;9.50;;;6.32;;
30000;SDS011;16845;48.670;9.000;2023-04-29T15:08:02;8.57;;;6.60;;